Time;durP1;ratioP1;P1;durP2;ratioP2;P2;SDS_P1;SDS_P2;PMS_P1;PMS_P2;Temp;Humidity;BMP_temperature;BMP_pressure;BME280_temperature;BME280_humidity;BME280_pressure;Samples;Min_cycle;Max_cycle;Signal;HPM_P1;HPM_P2
2022/06/14 00:01:59;;;;;;;27.47;14.53;;;;;;;9.98;100.00;99941.41;6222719;22;20657;-77
2022/06/14 00:04:25;;;;;;;27.20;13.83;;;;;;;9.99;100.00;99944.91;6220788;22;20288;-76
2022/06/14 00:06:52;;;;;;;28.07;13.50;;;;;;;10.01;100.00;99946.41;6220299;22;20651;-75
2022/06/14 00:09:19;;;;;;;34.37;14.43;;;;;;;10.05;100.00;99947.78;6223667;22;20593;-78
2022/06/14 00:11:46;;;;;;;25.93;13.33;;;;;;;9.97;100.00;99941.56;6226667;22;20201;-75
2022/06/14 00:14:13;;;;;;;22.33;14.10;;;;;;;10.01;100.00;99949.06;6200986;23;20241;-76
2022/06/14 00:16:39;;;;;;;22.20;13.17;;;;;;;9.98;100.00;99949.38;6225178;22;20205;-78
2022/06/14 00:19:06;;;;;;;21.87;11.90;;;;;;;10.08;100.00;99949.31;6228727;22;20259;-78
2022/06/14 00:21:34;;;;;;;23.73;11.43;;;;;;;10.07;100.00;99953.78;6226756;22;20208;-77
2022/06/14 00:24:01;;;;;;;22.97;10.77;;;;;;;10.06;100.00;99960.06;6227386;22;20251;-77
2022/06/14 00:26:28;;;;;;;19.50;9.83;;;;;;;10.13;100.00;99963.78;6225074;22;20201;-77
2022/06/14 00:28:55;;;;;;;19.60;9.33;;;;;;;10.10;100.00;99957.97;6229473;22;20204;-76
2022/06/14 00:31:24;;;;;;;17.23;9.53;;;;;;;10.06;100.00;99954.75;6262259;22;20226;-76
2022/06/14 00:33:50;;;;;;;19.80;8.83;;;;;;;9.97;100.00;99958.34;6264016;22;20207;-77
2022/06/14 00:36:35;;;;;;;16.10;8.37;;;;;;;9.98;100.00;99961.84;6266316;22;20219;-78
2022/06/14 00:39:07;;;;;;;14.30;7.77;;;;;;;9.93;100.00;99960.47;6269346;22;20549;-77
2022/06/14 00:41:46;;;;;;;16.13;8.13;;;;;;;9.79;100.00;99970.81;6273251;22;20208;-78
2022/06/14 00:44:16;;;;;;;12.20;6.90;;;;;;;9.83;100.00;99967.72;6271271;22;20255;-76
2022/06/14 00:46:58;;;;;;;17.13;7.67;;;;;;;9.80;100.00;99967.16;6272183;22;20200;-76
2022/06/14 00:49:50;;;;;;;14.83;7.47;;;;;;;9.69;100.00;99968.19;6271252;22;20200;-78
2022/06/14 00:52:24;;;;;;;15.20;7.93;;;;;;;9.58;100.00;99974.59;6212846;23;20663;-76
2022/06/14 00:54:54;;;;;;;17.47;8.37;;;;;;;9.59;100.00;99973.59;6254315;22;20200;-78
2022/06/14 00:57:26;;;;;;;16.97;7.70;;;;;;;9.66;100.00;99974.66;6252283;22;20200;-76
2022/06/14 00:59:57;;;;;;;17.73;8.00;;;;;;;9.67;100.00;99972.84;6254225;22;21134;-77
2022/06/14 01:02:27;;;;;;;18.07;7.17;;;;;;;9.60;100.00;99977.06;6248583;22;20216;-76
2022/06/14 01:04:54;;;;;;;12.57;7.53;;;;;;;9.57;100.00;99978.22;6250980;22;20268;-76
2022/06/14 01:07:30;;;;;;;15.57;7.53;;;;;;;9.50;100.00;99971.81;6257264;22;20264;-78
2022/06/14 01:10:02;;;;;;;17.67;8.13;;;;;;;9.45;100.00;99982.91;6256686;22;20220;-76
2022/06/14 01:12:35;;;;;;;17.13;8.13;;;;;;;9.44;100.00;99986.56;6239817;22;20278;-76
2022/06/14 01:15:18;;;;;;;17.10;8.70;;;;;;;9.42;100.00;99985.03;6259994;22;20231;-75
2022/06/14 01:17:48;;;;;;;18.67;8.27;;;;;;;9.49;100.00;99983.44;6255139;22;20543;-76
2022/06/14 01:20:18;;;;;;;19.73;8.30;;;;;;;9.38;100.00;99983.66;6251891;22;20291;-77
2022/06/14 01:22:45;;;;;;;20.83;8.97;;;;;;;9.36;100.00;99982.97;6253091;22;20207;-76
2022/06/14 01:25:12;;;;;;;17.70;8.30;;;;;;;9.34;100.00;99987.56;6247616;22;20611;-77
2022/06/14 01:27:40;;;;;;;18.10;8.00;;;;;;;9.40;100.00;99981.69;6251202;22;20663;-77
2022/06/14 01:30:07;;;;;;;19.67;8.83;;;;;;;9.38;100.00;99988.97;6244404;22;21067;-77
2022/06/14 01:32:39;;;;;;;14.73;8.67;;;;;;;9.38;100.00;99987.13;6253209;22;20265;-76
2022/06/14 01:35:09;;;;;;;14.53;8.63;;;;;;;9.32;100.00;99989.53;6225612;22;20208;-77
2022/06/14 01:37:35;;;;;;;15.33;7.93;;;;;;;9.32;100.00;99978.91;6251059;22;20208;-77
2022/06/14 01:40:05;;;;;;;17.77;8.87;;;;;;;9.22;100.00;99984.28;6252496;22;20208;-76
2022/06/14 01:42:41;;;;;;;20.63;8.43;;;;;;;9.24;100.00;99987.63;6251505;22;20223;-77
2022/06/14 01:45:30;;;;;;;14.90;7.90;;;;;;;9.20;100.00;99989.75;5911371;22;20323;-79
2022/06/14 01:48:22;;;;;;;14.17;7.23;;;;;;;9.16;100.00;99991.03;5158432;22;21154;-77
2022/06/14 01:54:08;;;;;;;15.57;7.50;;;;;;;9.13;100.00;99990.47;5137273;22;20332;-76
2022/06/14 01:56:44;;;;;;;13.13;7.47;;;;;;;9.15;100.00;99994.66;5158300;22;20201;-77
2022/06/14 01:59:32;;;;;;;14.60;7.87;;;;;;;9.11;100.00;99995.09;5124122;22;21165;-78
2022/06/14 02:02:10;;;;;;;17.17;7.83;;;;;;;9.06;100.00;100000.84;5122892;22;20607;-79
2022/06/14 02:05:10;;;;;;;19.23;7.70;;;;;;;9.05;100.00;99999.19;5137059;22;21096;-80
2022/06/14 02:07:54;;;;;;;15.40;7.63;;;;;;;9.06;100.00;100007.00;5138531;22;20323;-78
2022/06/14 02:10:27;;;;;;;16.33;7.47;;;;;;;8.96;100.00;100005.34;5144209;22;20205;-77
2022/06/14 02:13:23;;;;;;;13.83;7.20;;;;;;;8.98;100.00;100009.53;5147906;22;20201;-78
2022/06/14 02:15:49;;;;;;;18.90;8.20;;;;;;;8.96;100.00;100010.66;5174986;22;21694;-79
2022/06/14 02:19:12;;;;;;;11.77;7.67;;;;;;;8.95;100.00;100011.66;5164165;22;20220;-79
2022/06/14 02:21:46;;;;;;;20.47;8.00;;;;;;;8.82;100.00;100009.31;5083202;23;21292;-79
2022/06/14 02:24:23;;;;;;;18.57;8.27;;;;;;;8.85;100.00;100009.03;5159359;22;21159;-79
2022/06/14 02:27:04;;;;;;;18.83;8.67;;;;;;;8.91;100.00;100013.75;5158229;22;20198;-78
2022/06/14 02:29:39;;;;;;;15.80;7.57;;;;;;;8.83;100.00;100011.81;5186627;22;21255;-77
2022/06/14 02:32:18;;;;;;;15.03;8.17;;;;;;;8.96;100.00;100018.63;5179438;22;20200;-79
2022/06/14 02:34:57;;;;;;;22.80;8.33;;;;;;;8.90;100.00;100014.75;5188454;22;20322;-79
2022/06/14 02:37:28;;;;;;;16.50;8.30;;;;;;;8.88;100.00;100014.88;5162339;22;20206;-78
2022/06/14 02:39:58;;;;;;;18.73;8.57;;;;;;;8.88;100.00;100017.53;5253289;22;20549;-78
2022/06/14 02:43:16;;;;;;;22.73;7.87;;;;;;;8.87;100.00;100018.53;5278803;22;22314;-79
2022/06/14 02:45:48;;;;;;;14.90;8.70;;;;;;;8.86;100.00;100014.19;5245081;22;20202;-79
2022/06/14 02:48:21;;;;;;;20.73;8.10;;;;;;;8.93;100.00;100016.28;5165745;22;21313;-80
2022/06/14 02:50:59;;;;;;;17.33;7.83;;;;;;;8.93;100.00;100021.56;5220566;22;20570;-80
2022/06/14 02:53:33;;;;;;;12.53;7.90;;;;;;;9.00;100.00;100017.34;5297571;22;22954;-78
2022/06/14 02:56:13;;;;;;;15.10;8.43;;;;;;;8.99;100.00;100016.53;5314944;22;20201;-80
2022/06/14 02:58:59;;;;;;;16.60;8.40;;;;;;;8.94;100.00;100017.94;5272668;22;20724;-77
2022/06/14 03:01:33;;;;;;;18.57;8.10;;;;;;;8.93;100.00;100021.56;5194517;22;20263;-78
2022/06/14 03:04:10;;;;;;;20.77;9.37;;;;;;;8.93;100.00;100027.72;5174722;22;20202;-77
2022/06/14 03:07:08;;;;;;;20.93;8.40;;;;;;;8.96;100.00;100023.94;5157775;22;20202;-79
2022/06/14 03:09:36;;;;;;;21.97;11.77;;;;;;;8.92;100.00;100025.19;5186266;22;21411;-78
2022/06/14 03:12:08;;;;;;;21.20;9.00;;;;;;;8.87;100.00;100026.50;5149265;22;20438;-80
2022/06/14 03:15:21;;;;;;;23.70;9.37;;;;;;;8.98;100.00;100032.59;5178507;22;20691;-78
2022/06/14 03:18:12;;;;;;;16.10;8.40;;;;;;;9.00;100.00;100035.94;5159749;22;22247;-79
2022/06/14 03:21:01;;;;;;;18.13;9.53;;;;;;;9.03;100.00;100035.63;5163815;22;26148;-77
2022/06/14 03:24:00;;;;;;;18.73;9.57;;;;;;;9.14;100.00;100043.44;5173867;22;21159;-79
2022/06/14 03:26:53;;;;;;;22.27;10.33;;;;;;;9.13;100.00;100048.88;5154270;22;20201;-79
2022/06/14 03:29:28;;;;;;;16.17;8.80;;;;;;;9.15;100.00;100047.75;5172032;22;21559;-78
2022/06/14 03:32:02;;;;;;;16.20;9.70;;;;;;;9.16;100.00;100045.94;5152676;22;20271;-79
2022/06/14 03:34:46;;;;;;;20.53;9.70;;;;;;;9.24;100.00;100054.00;5168128;22;20383;-78
2022/06/14 03:37:13;;;;;;;25.73;10.37;;;;;;;9.33;100.00;100054.97;5162609;22;20201;-80
2022/06/14 03:39:44;;;;;;;20.07;10.70;;;;;;;9.43;100.00;100055.75;5167630;22;21765;-79
2022/06/14 03:42:12;;;;;;;17.17;10.33;;;;;;;9.43;100.00;100055.75;5134616;22;20317;-83
2022/06/14 03:44:40;;;;;;;22.33;10.33;;;;;;;9.43;100.00;100055.75;5096155;22;20206;-87
2022/06/14 03:47:18;;;;;;;22.80;8.90;;;;;;;9.51;100.00;100064.66;5153539;22;20945;-79
2022/06/14 03:49:48;;;;;;;27.83;9.60;;;;;;;9.59;100.00;100061.25;5163432;22;21217;-78
2022/06/14 03:52:24;;;;;;;19.90;9.53;;;;;;;9.64;100.00;100063.47;5138796;22;20215;-81
2022/06/14 03:55:06;;;;;;;16.53;8.63;;;;;;;9.77;100.00;100073.75;5142999;22;20220;-79
2022/06/14 03:57:57;;;;;;;16.93;8.43;;;;;;;9.77;100.00;100073.75;5146757;22;20236;-79
2022/06/14 04:00:32;;;;;;;20.67;8.93;;;;;;;9.77;100.00;100076.41;5149890;22;20210;-82
2022/06/14 04:03:05;;;;;;;20.93;9.47;;;;;;;9.82;100.00;100071.50;5130371;22;22112;-79
2022/06/14 04:05:32;;;;;;;19.70;8.80;;;;;;;9.90;100.00;100063.59;5128491;22;21131;-80
2022/06/14 04:08:09;;;;;;;18.10;8.53;;;;;;;9.93;100.00;100073.94;5139210;22;20594;-78
2022/06/14 04:10:39;;;;;;;18.37;8.83;;;;;;;9.92;100.00;100075.75;5098300;22;20201;-81
2022/06/14 04:13:27;;;;;;;17.87;8.17;;;;;;;9.97;100.00;100064.66;5134969;22;21493;-79
2022/06/14 04:16:03;;;;;;;18.13;8.30;;;;;;;10.11;100.00;100065.97;5140749;22;21183;-80
2022/06/14 04:18:50;;;;;;;18.00;8.50;;;;;;;10.22;100.00;100073.72;5133554;22;20204;-79
2022/06/14 04:21:32;;;;;;;20.13;7.73;;;;;;;10.25;100.00;100077.91;5147531;22;20209;-79
2022/06/14 04:24:17;;;;;;;16.20;7.10;;;;;;;10.27;100.00;100076.75;5122621;22;20773;-81
2022/06/14 04:26:53;;;;;;;22.93;7.63;;;;;;;10.40;100.00;100081.75;5139382;22;20272;-81
2022/06/14 04:29:27;;;;;;;11.00;6.90;;;;;;;10.57;100.00;100067.59;5138949;22;20202;-81
2022/06/14 04:31:59;;;;;;;17.97;8.33;;;;;;;10.64;100.00;100069.63;5119545;22;20675;-82
2022/06/14 04:34:33;;;;;;;17.93;7.47;;;;;;;10.72;100.00;100070.53;5121300;22;20238;-83
2022/06/14 04:37:23;;;;;;;19.57;8.40;;;;;;;10.79;100.00;100081.38;5124298;22;20234;-78
2022/06/14 04:39:57;;;;;;;17.83;7.73;;;;;;;10.95;100.00;100078.00;5130066;22;20210;-83
2022/06/14 04:42:52;;;;;;;22.87;10.10;;;;;;;11.04;100.00;100084.22;5139290;22;20203;-83
2022/06/14 04:45:24;;;;;;;21.87;7.07;;;;;;;11.14;100.00;100085.81;5169199;22;20209;-82
2022/06/14 04:47:55;;;;;;;14.73;7.53;;;;;;;11.05;100.00;100086.75;5173822;22;20547;-83
2022/06/14 04:50:29;;;;;;;15.70;7.80;;;;;;;11.00;100.00;100083.69;5156943;22;20582;-80
2022/06/14 04:53:01;;;;;;;16.20;7.83;;;;;;;11.14;100.00;100083.13;5208376;22;20252;-83
2022/06/14 04:55:49;;;;;;;19.57;7.60;;;;;;;11.12;100.00;100082.47;5167712;22;20202;-78
2022/06/14 04:58:20;;;;;;;14.00;7.90;;;;;;;11.16;100.00;100089.13;5194670;22;20202;-81
2022/06/14 05:00:53;;;;;;;11.87;6.70;;;;;;;11.33;100.00;100087.41;5161527;22;22729;-81
2022/06/14 05:03:26;;;;;;;18.97;6.87;;;;;;;11.41;100.00;100087.44;5168326;22;21225;-83
2022/06/14 05:05:59;;;;;;;10.10;5.70;;;;;;;11.41;100.00;100086.59;5183164;22;20296;-82
2022/06/14 05:08:43;;;;;;;12.30;5.73;;;;;;;11.53;100.00;100087.16;5156975;22;20198;-80
2022/06/14 05:11:24;;;;;;;13.07;5.83;;;;;;;11.69;100.00;100100.56;5155227;22;25871;-82
2022/06/14 05:14:00;;;;;;;17.77;6.00;;;;;;;11.80;100.00;100100.28;5144702;22;20316;-82
2022/06/14 05:16:32;;;;;;;13.70;5.40;;;;;;;12.21;100.00;100104.91;5089973;22;20209;-80
2022/06/14 05:19:02;;;;;;;12.97;5.30;;;;;;;12.32;100.00;100095.75;5163373;22;20375;-83
2022/06/14 05:21:32;;;;;;;10.60;5.63;;;;;;;12.50;98.09;100093.75;5209388;22;20975;-83
2022/06/14 05:24:04;;;;;;;13.77;4.90;;;;;;;12.83;95.35;100096.44;5185368;22;20302;-84
2022/06/14 05:26:49;;;;;;;12.00;4.77;;;;;;;13.11;93.85;100104.94;5171140;22;20203;-83
2022/06/14 05:29:27;;;;;;;8.87;4.90;;;;;;;13.40;91.90;100101.72;5172809;22;20869;-85
2022/06/14 05:32:28;;;;;;;12.77;4.63;;;;;;;13.51;89.33;100097.84;5156058;22;22187;-84
2022/06/14 05:35:24;;;;;;;10.07;3.80;;;;;;;14.12;86.81;100103.41;5196099;22;20621;-84
2022/06/14 05:38:02;;;;;;;6.70;3.17;;;;;;;14.46;84.62;100097.66;5179215;22;20205;-83
2022/06/14 05:40:36;;;;;;;8.67;3.73;;;;;;;14.85;83.10;100098.56;5126307;22;22837;-86
2022/06/14 05:43:31;;;;;;;10.47;3.63;;;;;;;14.82;80.25;100105.13;5144487;22;20302;-83
2022/06/14 05:46:08;;;;;;;4.13;2.87;;;;;;;15.12;78.92;100097.13;5169315;22;20593;-83
2022/06/14 05:48:47;;;;;;;8.07;2.67;;;;;;;15.35;76.06;100107.78;5184082;22;20246;-83
2022/06/14 05:51:15;;;;;;;8.43;2.60;;;;;;;15.76;76.21;100113.53;5169551;22;20208;-82
2022/06/14 05:53:50;;;;;;;6.87;2.40;;;;;;;16.06;73.47;100109.97;5154010;22;20672;-82
2022/06/14 05:56:21;;;;;;;6.07;2.10;;;;;;;16.13;70.88;100113.56;5156112;22;20676;-84
2022/06/14 05:58:55;;;;;;;7.70;1.97;;;;;;;16.71;69.92;100114.34;5151018;22;20278;-77
2022/06/14 06:01:28;;;;;;;6.30;1.97;;;;;;;17.08;67.96;100117.81;5156107;22;20238;-79
2022/06/14 06:04:04;;;;;;;8.67;2.13;;;;;;;17.08;68.74;100112.44;5150853;22;20206;-81
2022/06/14 06:06:36;;;;;;;5.07;1.87;;;;;;;17.02;66.37;100116.75;5131226;22;20803;-78
2022/06/14 06:09:29;;;;;;;5.13;1.67;;;;;;;17.82;63.42;100130.72;5123235;22;20250;-78
2022/06/14 06:12:16;;;;;;;5.67;1.70;;;;;;;17.65;63.42;100127.50;5160494;22;20671;-82
2022/06/14 06:14:48;;;;;;;6.13;1.70;;;;;;;18.85;59.96;100137.88;5135454;22;20294;-80
2022/06/14 06:17:17;;;;;;;4.60;1.57;;;;;;;19.07;58.14;100131.22;5122060;22;20304;-80
2022/06/14 06:19:49;;;;;;;9.23;2.93;;;;;;;18.90;58.58;100135.38;5145970;22;20633;-75
2022/06/14 06:22:27;;;;;;;11.90;2.67;;;;;;;20.05;56.50;100138.50;5163741;22;20919;-81
2022/06/14 06:25:23;;;;;;;5.90;1.50;;;;;;;20.21;54.57;100143.41;5156140;22;20706;-86
2022/06/14 06:28:06;;;;;;;2.93;1.60;;;;;;;21.56;50.81;100144.94;5168286;22;20794;-70
2022/06/14 06:30:48;;;;;;;5.50;1.40;;;;;;;21.04;52.40;100141.66;5120324;22;21316;-70
2022/06/14 06:33:16;;;;;;;5.03;1.43;;;;;;;21.36;51.41;100145.09;5175424;22;20264;-74
2022/06/14 06:36:11;;;;;;;6.90;1.60;;;;;;;21.38;50.66;100145.72;5123031;22;20375;-83
2022/06/14 06:39:03;;;;;;;3.93;1.30;;;;;;;20.02;53.48;100141.63;5193345;22;20223;-74
2022/06/14 06:41:54;;;;;;;3.97;1.47;;;;;;;20.44;53.54;100142.06;5195226;22;20727;-77
2022/06/14 06:44:30;;;;;;;5.07;1.20;;;;;;;20.77;51.22;100146.44;5175512;22;20281;-76
2022/06/14 06:47:22;;;;;;;5.80;1.30;;;;;;;21.18;49.93;100147.78;5185926;22;20241;-79
2022/06/14 06:50:10;;;;;;;4.27;1.50;;;;;;;20.74;51.69;100146.88;5160409;22;20268;-78
2022/06/14 06:52:54;;;;;;;3.57;1.13;;;;;;;21.56;48.61;100149.53;5179480;22;20206;-76
2022/06/14 06:55:58;;;;;;;9.03;1.30;;;;;;;20.89;49.78;100150.09;5143686;22;20202;-76
2022/06/14 06:58:43;;;;;;;3.93;1.00;;;;;;;20.01;52.30;100148.06;5204682;22;20208;-76
2022/06/14 07:01:17;;;;;;;4.47;1.00;;;;;;;20.22;50.33;100150.47;5172024;22;20268;-77
2022/06/14 07:03:47;;;;;;;7.53;1.20;;;;;;;19.09;52.86;100144.50;5178485;22;21548;-76
2022/06/14 07:06:21;;;;;;;7.27;1.37;;;;;;;19.35;54.10;100144.47;5178152;22;20221;-79
2022/06/14 07:09:14;;;;;;;3.63;1.53;;;;;;;18.11;59.86;100140.34;5183990;22;25458;-79
2022/06/14 07:11:47;;;;;;;6.67;1.20;;;;;;;18.61;55.91;100152.72;5229354;22;20621;-77
2022/06/14 07:14:20;;;;;;;6.43;1.37;;;;;;;19.08;54.59;100148.22;5166296;22;20207;-77
2022/06/14 07:16:55;;;;;;;7.57;1.50;;;;;;;19.21;54.02;100145.53;5149003;22;20205;-77
2022/06/14 07:19:31;;;;;;;3.50;1.10;;;;;;;18.89;55.45;100148.00;5234404;22;21566;-78
2022/06/14 07:22:10;;;;;;;4.27;1.40;;;;;;;18.35;56.27;100138.16;5173318;22;20252;-76
2022/06/14 07:25:11;;;;;;;2.67;1.13;;;;;;;17.94;57.58;100136.34;5167536;22;20276;-81
2022/06/14 07:27:54;;;;;;;3.80;1.40;;;;;;;17.63;60.83;100124.19;5172737;22;20857;-79
2022/06/14 07:30:25;;;;;;;6.07;1.20;;;;;;;17.55;59.81;100127.00;5201056;22;20596;-76
2022/06/14 07:32:54;;;;;;;6.70;1.23;;;;;;;17.77;58.04;100125.06;5220830;22;20516;-77
2022/06/14 07:35:35;;;;;;;4.20;1.00;;;;;;;17.96;56.95;100128.06;5190720;22;20263;-77
2022/06/14 07:38:13;;;;;;;6.17;1.00;;;;;;;18.18;54.69;100142.25;5171664;22;20211;-78
2022/06/14 07:40:58;;;;;;;6.97;1.97;;;;;;;18.20;55.12;100140.19;5189875;22;20243;-78
2022/06/14 07:43:36;;;;;;;6.13;1.00;;;;;;;17.72;55.20;100127.50;5151039;22;20426;-75
2022/06/14 07:46:12;;;;;;;4.20;1.40;;;;;;;17.29;58.14;100117.75;5203082;22;20209;-80
2022/06/14 07:49:11;;;;;;;5.77;1.20;;;;;;;17.16;58.94;100127.56;5206717;22;21477;-75
2022/06/14 07:52:09;;;;;;;4.57;0.90;;;;;;;16.69;61.07;100121.78;5134828;22;25128;-77
2022/06/14 07:54:44;;;;;;;8.53;1.17;;;;;;;16.50;62.22;100117.06;5129710;22;20616;-75
2022/06/14 07:57:13;;;;;;;4.37;0.90;;;;;;;16.74;62.46;100113.13;5184767;22;20196;-76
2022/06/14 07:59:51;;;;;;;5.80;1.00;;;;;;;16.44;62.42;100124.03;5154341;22;22688;-78
2022/06/14 08:02:26;;;;;;;5.20;1.20;;;;;;;16.14;65.58;100120.59;5143725;22;21314;-75
2022/06/14 08:04:55;;;;;;;5.73;1.27;;;;;;;15.74;68.85;100114.75;5179545;22;22020;-75
2022/06/14 08:07:24;;;;;;;4.20;1.10;;;;;;;15.92;66.42;100111.66;5125043;22;21659;-76
2022/06/14 08:09:50;;;;;;;5.40;1.30;;;;;;;16.39;64.53;100123.78;5262587;22;21490;-78
2022/06/14 08:12:38;;;;;;;5.87;1.20;;;;;;;16.51;62.09;100118.75;5145224;22;20199;-77
2022/06/14 08:15:08;;;;;;;1.77;0.70;;;;;;;16.98;60.08;100126.22;5154204;22;26215;-75
2022/06/14 08:17:50;;;;;;;4.27;1.20;;;;;;;17.42;58.78;100132.31;5181192;22;20242;-77
2022/06/14 08:20:46;;;;;;;4.97;1.40;;;;;;;18.06;55.59;100133.91;5202912;22;20202;-79
2022/06/14 08:23:18;;;;;;;5.63;1.30;;;;;;;18.14;55.71;100131.03;5238182;22;20663;-77
2022/06/14 08:25:48;;;;;;;4.63;1.20;;;;;;;17.96;56.28;100128.06;5140225;22;21567;-76
2022/06/14 08:28:45;;;;;;;6.30;1.40;;;;;;;17.69;56.84;100128.75;5164834;22;20203;-75
2022/06/14 08:31:30;;;;;;;4.93;1.07;;;;;;;17.03;58.09;100120.25;5195722;22;20419;-81
2022/06/14 08:34:26;;;;;;;6.40;1.40;;;;;;;17.05;57.35;100121.72;5176568;22;20209;-81
2022/06/14 08:37:03;;;;;;;5.33;1.17;;;;;;;17.11;55.20;100136.22;5362879;22;20209;-96
2022/06/14 08:39:36;;;;;;;4.47;1.30;;;;;;;17.29;55.70;100128.50;5330818;23;21167;-85
2022/06/14 08:42:17;;;;;;;3.53;1.03;;;;;;;17.22;55.48;100116.88;5288489;22;26108;-84
2022/06/14 08:45:06;;;;;;;4.13;1.30;;;;;;;17.16;55.82;100114.13;5185569;22;21378;-84
2022/06/14 08:47:55;;;;;;;2.63;0.80;;;;;;;17.08;54.45;100125.88;5217271;22;20265;-85
2022/06/14 08:50:34;;;;;;;6.93;1.10;;;;;;;16.97;53.57;100129.09;5245947;22;20780;-81
2022/06/14 08:53:26;;;;;;;5.10;1.17;;;;;;;17.23;52.65;100129.31;5262632;22;20260;-84
2022/06/14 08:56:22;;;;;;;8.13;4.77;;;;;;;16.97;51.37;100135.28;5199836;22;21212;-81
2022/06/14 08:59:12;;;;;;;4.03;1.07;;;;;;;17.22;49.33;100133.00;5328020;22;20233;-81
2022/06/14 09:01:55;;;;;;;6.63;1.00;;;;;;;17.63;50.00;100134.94;5273829;22;20543;-82
2022/06/14 09:05:01;;;;;;;2.37;1.00;;;;;;;17.06;52.16;100133.28;5184259;22;21256;-86
2022/06/14 09:07:51;;;;;;;5.73;0.90;;;;;;;16.58;54.17;100131.19;5286668;22;20310;-86
2022/06/14 09:10:26;;;;;;;6.03;0.90;;;;;;;16.70;54.44;100139.56;5222197;22;20203;-85
2022/06/14 09:12:56;;;;;;;3.03;0.87;;;;;;;16.87;53.75;100138.31;5283747;22;20277;-86
2022/06/14 09:15:42;;;;;;;4.83;1.20;;;;;;;17.20;51.95;100140.44;5264311;22;22008;-82
2022/06/14 09:18:50;;;;;;;6.63;1.10;;;;;;;17.50;51.20;100142.91;5373417;22;26350;-82
2022/06/14 09:21:32;;;;;;;8.13;1.03;;;;;;;17.54;49.28;100140.69;5250714;22;21543;-80
2022/06/14 09:24:27;;;;;;;6.00;1.00;;;;;;;17.99;48.83;100146.53;5220771;22;20421;-81
2022/06/14 09:27:09;;;;;;;7.50;1.33;;;;;;;17.92;47.57;100155.41;5271675;22;20208;-83
2022/06/14 09:30:08;;;;;;;3.37;0.77;;;;;;;17.57;47.03;100142.97;5217575;22;20367;-83
2022/06/14 09:33:15;;;;;;;2.97;1.00;;;;;;;17.35;48.94;100145.72;5218192;22;20206;-84
2022/06/14 09:36:03;;;;;;;6.27;1.20;;;;;;;17.32;50.31;100150.66;5208898;22;20197;-83
2022/06/14 09:38:49;;;;;;;3.67;1.00;;;;;;;17.23;51.47;100147.28;5180630;22;20209;-83
2022/06/14 09:41:55;;;;;;;7.17;1.40;;;;;;;16.80;54.14;100155.41;5207154;22;20343;-84
2022/06/14 09:44:47;;;;;;;1.77;0.70;;;;;;;16.73;54.26;100149.94;5196750;22;20721;-82
2022/06/14 09:47:49;;;;;;;3.63;1.00;;;;;;;16.40;55.54;100155.78;5191909;22;21418;-83
2022/06/14 09:50:21;;;;;;;4.00;1.10;;;;;;;16.42;53.89;100153.75;5155768;22;20375;-84
2022/06/14 09:53:01;;;;;;;5.43;1.10;;;;;;;16.21;54.52;100149.19;5191936;22;21127;-82
2022/06/14 09:56:01;;;;;;;5.03;1.23;;;;;;;16.24;55.89;100150.66;5169525;22;21215;-84
2022/06/14 09:58:47;;;;;;;4.73;1.23;;;;;;;16.11;57.10;100148.66;5171377;22;20217;-83
2022/06/14 10:01:34;;;;;;;2.60;1.00;;;;;;;16.20;56.76;100146.69;5160382;22;22328;-82
2022/06/14 10:04:10;;;;;;;7.17;1.23;;;;;;;16.06;58.13;100142.19;5209780;22;20217;-83
2022/06/14 10:07:07;;;;;;;9.13;1.30;;;;;;;16.25;57.00;100136.22;5158580;22;21317;-82
2022/06/14 10:09:55;;;;;;;5.17;1.10;;;;;;;16.60;55.36;100139.03;5152572;22;20272;-81
2022/06/14 10:12:40;;;;;;;6.53;1.20;;;;;;;16.78;55.86;100136.75;5198810;22;21055;-81
2022/06/14 10:15:28;;;;;;;5.47;1.20;;;;;;;16.97;55.83;100131.78;5192777;22;21532;-85
2022/06/14 10:18:12;;;;;;;4.10;1.00;;;;;;;17.06;55.13;100141.38;5224081;22;21019;-80
2022/06/14 10:20:48;;;;;;;4.93;1.00;;;;;;;17.07;55.98;100137.66;5220787;22;20314;-91
2022/06/14 10:23:21;;;;;;;3.30;1.10;;;;;;;17.03;53.54;100126.44;5165400;22;22463;-83
2022/06/14 10:28:56;;;;;;;4.33;1.30;;;;;;;16.69;54.05;100135.22;5226812;22;20585;-83
2022/06/14 10:31:51;;;;;;;5.77;1.20;;;;;;;16.42;55.43;100145.69;5226275;22;22421;-80
2022/06/14 10:34:49;;;;;;;4.93;1.23;;;;;;;16.10;56.00;100140.78;5198606;22;20247;-81
2022/06/14 10:37:37;;;;;;;4.80;0.90;;;;;;;15.90;56.25;100149.44;5196740;22;20209;-77
2022/06/14 10:40:18;;;;;;;5.50;1.10;;;;;;;15.89;56.67;100147.75;5366331;22;20868;-83
2022/06/14 10:42:57;;;;;;;3.03;1.17;;;;;;;15.73;56.29;100153.31;5269373;22;20210;-79
2022/06/14 10:45:30;;;;;;;3.27;1.07;;;;;;;15.92;55.23;100146.53;5296214;22;20214;-82
2022/06/14 10:48:12;;;;;;;2.37;0.90;;;;;;;16.15;55.29;100146.41;5255343;22;20205;-79
2022/06/14 10:51:00;;;;;;;4.27;1.13;;;;;;;16.18;55.82;100129.94;5316312;22;20417;-78
2022/06/14 10:53:44;;;;;;;7.13;1.00;;;;;;;16.19;55.67;100136.97;5443196;22;20209;-78
2022/06/14 10:56:46;;;;;;;3.47;0.93;;;;;;;16.21;55.29;100143.00;5414048;22;20620;-79
2022/06/14 10:59:37;;;;;;;5.13;0.80;;;;;;;16.09;54.10;100141.81;5385051;22;20216;-76
2022/06/14 11:02:41;;;;;;;4.40;0.97;;;;;;;16.16;53.23;100138.19;5300633;22;20307;-80
2022/06/14 11:05:11;;;;;;;5.77;1.60;;;;;;;16.23;53.41;100132.91;5250743;22;21515;-78
2022/06/14 11:08:12;;;;;;;5.10;1.10;;;;;;;16.37;51.26;100144.63;5278295;22;20204;-80
2022/06/14 11:10:48;;;;;;;9.90;1.20;;;;;;;16.51;50.96;100141.03;5216968;22;20382;-81
2022/06/14 11:13:45;;;;;;;9.50;1.87;;;;;;;16.68;52.55;100147.00;5330329;22;20882;-79
2022/06/14 11:16:16;;;;;;;5.17;1.13;;;;;;;16.31;52.16;100145.38;5216386;22;20493;-79
2022/06/14 11:18:56;;;;;;;5.20;0.97;;;;;;;16.08;54.39;100142.81;5357259;22;20886;-81
2022/06/14 11:21:47;;;;;;;3.07;0.83;;;;;;;16.22;54.37;100137.44;5304022;22;21175;-79
2022/06/14 11:24:30;;;;;;;3.67;1.10;;;;;;;16.18;55.26;100143.38;5371687;22;20244;-79
2022/06/14 11:27:30;;;;;;;6.07;1.10;;;;;;;16.61;54.23;100143.41;5347652;22;20282;-82
2022/06/14 11:30:03;;;;;;;4.73;1.17;;;;;;;16.88;54.06;100142.69;5175654;22;20281;-80
2022/06/14 11:32:39;;;;;;;7.53;1.07;;;;;;;16.71;51.10;100137.72;5172456;22;20217;-76
2022/06/14 11:35:37;;;;;;;4.53;1.00;;;;;;;16.58;52.81;100154.56;5110699;22;20206;-77
2022/06/14 11:38:34;;;;;;;5.67;1.30;;;;;;;16.09;54.94;100142.66;5118991;22;21003;-82
2022/06/14 11:41:05;;;;;;;6.80;1.00;;;;;;;15.88;51.80;100143.41;5175462;22;21295;-80
2022/06/14 11:43:41;;;;;;;3.73;1.17;;;;;;;15.92;50.94;100147.41;5145956;22;20391;-82
2022/06/14 11:46:41;;;;;;;4.10;0.70;;;;;;;15.94;52.43;100157.94;5169504;22;20308;-78
2022/06/14 11:49:20;;;;;;;6.20;0.90;;;;;;;16.02;51.96;100150.63;5200969;22;20210;-77
2022/06/14 11:52:24;;;;;;;3.63;1.00;;;;;;;16.30;52.36;100157.13;5222178;22;20287;-78
2022/06/14 11:55:22;;;;;;;5.07;0.90;;;;;;;16.49;51.27;100156.53;5211830;22;21438;-81
2022/06/14 11:57:59;;;;;;;3.67;1.27;;;;;;;16.80;50.88;100150.84;5192527;22;21470;-79
2022/06/14 12:00:55;;;;;;;3.17;1.00;;;;;;;17.07;49.99;100146.56;5144535;22;20240;-81
2022/06/14 12:03:41;;;;;;;4.00;1.00;;;;;;;17.16;47.46;100158.00;5180389;22;20306;-80
2022/06/14 12:06:31;;;;;;;5.93;1.17;;;;;;;16.92;47.03;100153.03;5157154;22;22009;-80
2022/06/14 12:09:13;;;;;;;7.77;1.10;;;;;;;16.81;48.14;100157.91;5184044;22;20352;-82
2022/06/14 12:11:49;;;;;;;3.57;0.97;;;;;;;16.63;49.06;100166.38;5234783;22;24797;-87
2022/06/14 12:14:38;;;;;;;7.33;1.03;;;;;;;16.74;50.19;100154.31;5239663;22;21466;-81
2022/06/14 12:17:26;;;;;;;5.77;1.40;;;;;;;16.74;50.39;100177.63;5168476;22;20213;-87
2022/06/14 12:20:05;;;;;;;4.10;1.00;;;;;;;16.62;50.55;100175.47;5211440;22;20638;-88
2022/06/14 12:22:57;;;;;;;6.33;1.00;;;;;;;16.52;50.84;100176.78;5323861;22;21538;-90
2022/06/14 12:28:45;;;;;;;5.30;1.10;;;;;;;16.22;52.60;100180.41;5240739;22;20520;-86
2022/06/14 12:31:41;;;;;;;6.40;1.17;;;;;;;16.15;53.65;100179.47;5224769;22;20214;-83
2022/06/14 12:34:16;;;;;;;5.47;1.23;;;;;;;16.35;53.03;100177.03;5261482;22;20528;-87